sensor_id;sensor_type;location;lat;lon;timestamp;P1;durP1;ratioP1;P2;durP2;ratioP2
59008;SDS011;44794;42.652;23.318;2023-05-07T00:00:16;24.25;;;14.90;;
59008;SDS011;44794;42.652;23.318;2023-05-07T00:02:44;25.40;;;17.55;;
59008;SDS011;44794;42.652;23.318;2023-05-07T00:05:10;27.63;;;17.50;;
59008;SDS011;44794;42.652;23.318;2023-05-07T00:07:35;28.00;;;17.30;;
59008;SDS011;44794;42.652;23.318;2023-05-07T00:10:01;24.23;;;17.02;;
59008;SDS011;44794;42.652;23.318;2023-05-07T00:12:27;26.25;;;17.85;;
59008;SDS011;44794;42.652;23.318;2023-05-07T00:14:53;25.33;;;17.90;;
59008;SDS011;44794;42.652;23.318;2023-05-07T00:17:18;28.10;;;18.63;;
59008;SDS011;44794;42.652;23.318;2023-05-07T00:19:43;28.35;;;18.98;;
59008;SDS011;44794;42.652;23.318;2023-05-07T00:22:09;28.67;;;19.10;;
59008;SDS011;44794;42.652;23.318;2023-05-07T00:24:35;28.05;;;19.48;;
59008;SDS011;44794;42.652;23.318;2023-05-07T00:27:00;34.80;;;19.85;;
59008;SDS011;44794;42.652;23.318;2023-05-07T00:29:26;27.92;;;18.70;;
59008;SDS011;44794;42.652;23.318;2023-05-07T00:31:51;27.45;;;19.88;;
59008;SDS011;44794;42.652;23.318;2023-05-07T00:34:18;28.92;;;19.17;;
59008;SDS011;44794;42.652;23.318;2023-05-07T00:36:45;28.50;;;19.45;;
59008;SDS011;44794;42.652;23.318;2023-05-07T00:39:10;31.60;;;19.85;;
59008;SDS011;44794;42.652;23.318;2023-05-07T00:41:36;27.88;;;19.00;;
59008;SDS011;44794;42.652;23.318;2023-05-07T00:44:01;36.47;;;19.88;;
59008;SDS011;44794;42.652;23.318;2023-05-07T00:46:27;28.80;;;19.73;;
59008;SDS011;44794;42.652;23.318;2023-05-07T00:48:53;29.70;;;19.63;;
59008;SDS011;44794;42.652;23.318;2023-05-07T00:51:19;32.83;;;21.60;;
59008;SDS011;44794;42.652;23.318;2023-05-07T00:53:45;35.38;;;22.30;;
59008;SDS011;44794;42.652;23.318;2023-05-07T00:56:11;35.97;;;22.98;;
59008;SDS011;44794;42.652;23.318;2023-05-07T00:58:37;33.13;;;21.85;;
59008;SDS011;44794;42.652;23.318;2023-05-07T01:01:03;31.48;;;21.95;;
59008;SDS011;44794;42.652;23.318;2023-05-07T01:03:28;35.47;;;22.00;;
59008;SDS011;44794;42.652;23.318;2023-05-07T01:05:54;34.88;;;22.73;;
59008;SDS011;44794;42.652;23.318;2023-05-07T01:08:23;32.90;;;21.90;;
59008;SDS011;44794;42.652;23.318;2023-05-07T01:10:51;35.33;;;22.80;;
59008;SDS011;44794;42.652;23.318;2023-05-07T01:13:18;31.67;;;20.77;;
59008;SDS011;44794;42.652;23.318;2023-05-07T01:15:44;31.40;;;21.08;;
59008;SDS011;44794;42.652;23.318;2023-05-07T01:18:10;33.13;;;20.80;;
59008;SDS011;44794;42.652;23.318;2023-05-07T01:20:36;30.40;;;20.58;;
59008;SDS011;44794;42.652;23.318;2023-05-07T01:23:01;25.98;;;17.85;;
59008;SDS011;44794;42.652;23.318;2023-05-07T01:25:28;29.23;;;19.65;;
59008;SDS011;44794;42.652;23.318;2023-05-07T01:27:54;28.00;;;18.30;;
59008;SDS011;44794;42.652;23.318;2023-05-07T01:30:20;27.25;;;19.52;;
59008;SDS011;44794;42.652;23.318;2023-05-07T01:32:57;26.50;;;18.50;;
59008;SDS011;44794;42.652;23.318;2023-05-07T01:35:26;25.90;;;18.20;;
59008;SDS011;44794;42.652;23.318;2023-05-07T01:37:54;31.07;;;19.27;;
59008;SDS011;44794;42.652;23.318;2023-05-07T01:40:20;28.42;;;18.38;;
59008;SDS011;44794;42.652;23.318;2023-05-07T01:42:46;24.83;;;17.50;;
59008;SDS011;44794;42.652;23.318;2023-05-07T01:45:13;26.90;;;17.25;;
59008;SDS011;44794;42.652;23.318;2023-05-07T01:47:39;25.60;;;17.00;;
59008;SDS011;44794;42.652;23.318;2023-05-07T01:50:08;24.67;;;16.58;;
59008;SDS011;44794;42.652;23.318;2023-05-07T01:52:35;23.05;;;14.93;;
59008;SDS011;44794;42.652;23.318;2023-05-07T01:55:02;21.92;;;15.82;;
59008;SDS011;44794;42.652;23.318;2023-05-07T01:57:29;21.58;;;16.05;;
59008;SDS011;44794;42.652;23.318;2023-05-07T01:59:55;22.02;;;15.60;;
59008;SDS011;44794;42.652;23.318;2023-05-07T02:02:20;24.80;;;15.20;;
59008;SDS011;44794;42.652;23.318;2023-05-07T02:04:46;23.92;;;15.75;;
59008;SDS011;44794;42.652;23.318;2023-05-07T02:07:11;23.48;;;16.13;;
59008;SDS011;44794;42.652;23.318;2023-05-07T02:09:36;21.83;;;15.80;;
59008;SDS011;44794;42.652;23.318;2023-05-07T02:12:03;21.77;;;15.85;;
59008;SDS011;44794;42.652;23.318;2023-05-07T02:14:29;21.17;;;15.65;;
59008;SDS011;44794;42.652;23.318;2023-05-07T02:16:55;21.75;;;15.23;;
59008;SDS011;44794;42.652;23.318;2023-05-07T02:19:20;19.73;;;14.85;;
59008;SDS011;44794;42.652;23.318;2023-05-07T02:21:46;22.92;;;14.70;;
59008;SDS011;44794;42.652;23.318;2023-05-07T02:24:12;24.20;;;13.73;;
59008;SDS011;44794;42.652;23.318;2023-05-07T02:26:39;20.63;;;14.15;;
59008;SDS011;44794;42.652;23.318;2023-05-07T02:29:07;21.95;;;14.68;;
59008;SDS011;44794;42.652;23.318;2023-05-07T02:31:32;22.88;;;14.82;;
59008;SDS011;44794;42.652;23.318;2023-05-07T02:33:59;19.92;;;14.48;;
59008;SDS011;44794;42.652;23.318;2023-05-07T02:36:26;23.52;;;15.50;;
59008;SDS011;44794;42.652;23.318;2023-05-07T02:38:51;23.77;;;15.57;;
59008;SDS011;44794;42.652;23.318;2023-05-07T02:41:17;21.48;;;15.95;;
59008;SDS011;44794;42.652;23.318;2023-05-07T02:43:43;24.65;;;15.95;;
59008;SDS011;44794;42.652;23.318;2023-05-07T02:46:08;22.90;;;16.35;;
59008;SDS011;44794;42.652;23.318;2023-05-07T02:48:34;23.73;;;16.58;;
59008;SDS011;44794;42.652;23.318;2023-05-07T02:51:00;25.50;;;16.20;;
59008;SDS011;44794;42.652;23.318;2023-05-07T02:53:26;26.42;;;16.27;;
59008;SDS011;44794;42.652;23.318;2023-05-07T02:55:58;24.98;;;17.02;;
59008;SDS011;44794;42.652;23.318;2023-05-07T02:58:24;22.40;;;15.93;;
59008;SDS011;44794;42.652;23.318;2023-05-07T03:00:51;23.35;;;16.50;;
59008;SDS011;44794;42.652;23.318;2023-05-07T03:03:17;24.55;;;16.23;;
59008;SDS011;44794;42.652;23.318;2023-05-07T03:05:43;25.23;;;16.60;;
59008;SDS011;44794;42.652;23.318;2023-05-07T03:08:09;24.95;;;16.70;;
59008;SDS011;44794;42.652;23.318;2023-05-07T03:10:35;24.70;;;18.05;;
59008;SDS011;44794;42.652;23.318;2023-05-07T03:13:02;26.23;;;18.58;;
59008;SDS011;44794;42.652;23.318;2023-05-07T03:15:28;29.02;;;17.83;;
59008;SDS011;44794;42.652;23.318;2023-05-07T03:17:56;28.95;;;17.42;;
59008;SDS011;44794;42.652;23.318;2023-05-07T03:20:21;26.35;;;18.13;;
59008;SDS011;44794;42.652;23.318;2023-05-07T03:22:47;25.90;;;17.92;;
59008;SDS011;44794;42.652;23.318;2023-05-07T03:25:12;28.45;;;17.27;;
59008;SDS011;44794;42.652;23.318;2023-05-07T03:27:39;27.08;;;17.40;;
59008;SDS011;44794;42.652;23.318;2023-05-07T03:30:04;28.95;;;17.60;;
59008;SDS011;44794;42.652;23.318;2023-05-07T03:32:31;31.30;;;18.05;;
59008;SDS011;44794;42.652;23.318;2023-05-07T03:34:58;29.23;;;19.15;;
59008;SDS011;44794;42.652;23.318;2023-05-07T03:37:23;29.98;;;17.83;;
59008;SDS011;44794;42.652;23.318;2023-05-07T03:39:50;28.40;;;18.17;;
59008;SDS011;44794;42.652;23.318;2023-05-07T03:42:15;27.65;;;17.05;;
59008;SDS011;44794;42.652;23.318;2023-05-07T03:44:41;30.23;;;18.80;;
59008;SDS011;44794;42.652;23.318;2023-05-07T03:47:06;30.05;;;18.42;;
59008;SDS011;44794;42.652;23.318;2023-05-07T03:49:32;28.35;;;17.40;;
59008;SDS011;44794;42.652;23.318;2023-05-07T03:51:58;25.00;;;17.02;;
59008;SDS011;44794;42.652;23.318;2023-05-07T03:54:23;26.75;;;16.48;;
59008;SDS011;44794;42.652;23.318;2023-05-07T03:56:49;29.88;;;17.00;;
59008;SDS011;44794;42.652;23.318;2023-05-07T03:59:14;26.63;;;16.52;;
59008;SDS011;44794;42.652;23.318;2023-05-07T04:01:39;24.83;;;15.98;;
59008;SDS011;44794;42.652;23.318;2023-05-07T04:04:05;24.70;;;16.77;;
59008;SDS011;44794;42.652;23.318;2023-05-07T04:06:30;23.48;;;17.13;;
59008;SDS011;44794;42.652;23.318;2023-05-07T04:08:56;26.45;;;16.95;;
59008;SDS011;44794;42.652;23.318;2023-05-07T04:11:22;24.90;;;16.23;;
59008;SDS011;44794;42.652;23.318;2023-05-07T04:13:47;24.48;;;16.23;;
59008;SDS011;44794;42.652;23.318;2023-05-07T04:16:13;23.38;;;16.02;;
59008;SDS011;44794;42.652;23.318;2023-05-07T04:18:38;21.27;;;16.15;;
59008;SDS011;44794;42.652;23.318;2023-05-07T04:21:04;21.55;;;14.95;;
59008;SDS011;44794;42.652;23.318;2023-05-07T04:23:30;23.00;;;14.60;;
59008;SDS011;44794;42.652;23.318;2023-05-07T04:25:55;20.05;;;15.18;;
59008;SDS011;44794;42.652;23.318;2023-05-07T04:28:22;23.83;;;14.93;;
59008;SDS011;44794;42.652;23.318;2023-05-07T04:30:48;22.60;;;14.35;;
59008;SDS011;44794;42.652;23.318;2023-05-07T04:33:13;23.40;;;14.45;;
59008;SDS011;44794;42.652;23.318;2023-05-07T04:35:41;18.63;;;13.77;;
59008;SDS011;44794;42.652;23.318;2023-05-07T04:38:07;20.33;;;14.68;;
59008;SDS011;44794;42.652;23.318;2023-05-07T04:40:33;23.42;;;14.52;;
59008;SDS011;44794;42.652;23.318;2023-05-07T04:43:00;21.55;;;14.57;;
59008;SDS011;44794;42.652;23.318;2023-05-07T04:45:26;24.95;;;14.27;;
59008;SDS011;44794;42.652;23.318;2023-05-07T04:47:51;19.02;;;13.85;;
59008;SDS011;44794;42.652;23.318;2023-05-07T04:50:17;21.35;;;14.85;;
59008;SDS011;44794;42.652;23.318;2023-05-07T04:52:44;18.45;;;14.40;;
59008;SDS011;44794;42.652;23.318;2023-05-07T04:55:10;21.33;;;14.20;;
59008;SDS011;44794;42.652;23.318;2023-05-07T04:57:35;20.67;;;14.23;;
59008;SDS011;44794;42.652;23.318;2023-05-07T05:00:01;19.98;;;14.65;;
59008;SDS011;44794;42.652;23.318;2023-05-07T05:02:29;22.42;;;14.32;;
59008;SDS011;44794;42.652;23.318;2023-05-07T05:04:54;22.58;;;14.52;;
59008;SDS011;44794;42.652;23.318;2023-05-07T05:07:19;24.23;;;14.23;;
59008;SDS011;44794;42.652;23.318;2023-05-07T05:09:45;20.55;;;14.27;;
59008;SDS011;44794;42.652;23.318;2023-05-07T05:12:10;20.33;;;13.57;;
59008;SDS011;44794;42.652;23.318;2023-05-07T05:14:36;19.20;;;14.00;;
59008;SDS011;44794;42.652;23.318;2023-05-07T05:17:01;16.35;;;12.60;;
59008;SDS011;44794;42.652;23.318;2023-05-07T05:19:26;15.82;;;12.27;;
59008;SDS011;44794;42.652;23.318;2023-05-07T05:21:52;19.25;;;10.93;;
59008;SDS011;44794;42.652;23.318;2023-05-07T05:24:17;13.63;;;9.75;;
59008;SDS011;44794;42.652;23.318;2023-05-07T05:26:43;12.98;;;10.00;;
59008;SDS011;44794;42.652;23.318;2023-05-07T05:29:09;13.65;;;9.90;;
59008;SDS011;44794;42.652;23.318;2023-05-07T05:31:35;11.45;;;9.50;;
59008;SDS011;44794;42.652;23.318;2023-05-07T05:34:01;12.65;;;9.65;;
59008;SDS011;44794;42.652;23.318;2023-05-07T05:36:27;15.75;;;9.95;;
59008;SDS011;44794;42.652;23.318;2023-05-07T05:38:53;12.23;;;8.93;;
59008;SDS011;44794;42.652;23.318;2023-05-07T05:41:18;12.10;;;9.32;;
59008;SDS011;44794;42.652;23.318;2023-05-07T05:43:43;11.07;;;8.93;;
59008;SDS011;44794;42.652;23.318;2023-05-07T05:46:09;12.38;;;9.45;;
59008;SDS011;44794;42.652;23.318;2023-05-07T05:48:36;9.65;;;8.55;;
59008;SDS011;44794;42.652;23.318;2023-05-07T05:51:02;10.43;;;8.75;;
59008;SDS011;44794;42.652;23.318;2023-05-07T05:53:27;11.18;;;8.90;;
59008;SDS011;44794;42.652;23.318;2023-05-07T05:55:53;9.98;;;8.85;;
59008;SDS011;44794;42.652;23.318;2023-05-07T05:58:18;15.30;;;8.90;;
59008;SDS011;44794;42.652;23.318;2023-05-07T06:00:44;12.35;;;8.65;;
59008;SDS011;44794;42.652;23.318;2023-05-07T06:03:13;10.07;;;8.93;;
59008;SDS011;44794;42.652;23.318;2023-05-07T06:05:38;11.57;;;8.57;;
59008;SDS011;44794;42.652;23.318;2023-05-07T06:08:04;9.70;;;8.63;;
59008;SDS011;44794;42.652;23.318;2023-05-07T06:10:29;9.45;;;8.45;;
59008;SDS011;44794;42.652;23.318;2023-05-07T06:12:55;10.02;;;8.50;;
59008;SDS011;44794;42.652;23.318;2023-05-07T06:15:21;9.18;;;8.27;;
59008;SDS011;44794;42.652;23.318;2023-05-07T06:17:46;8.65;;;7.75;;
59008;SDS011;44794;42.652;23.318;2023-05-07T06:20:12;8.15;;;7.35;;
59008;SDS011;44794;42.652;23.318;2023-05-07T06:22:37;9.68;;;8.23;;
59008;SDS011;44794;42.652;23.318;2023-05-07T06:25:02;10.48;;;8.80;;
59008;SDS011;44794;42.652;23.318;2023-05-07T06:27:28;11.60;;;8.45;;
59008;SDS011;44794;42.652;23.318;2023-05-07T06:29:53;11.82;;;8.65;;
59008;SDS011;44794;42.652;23.318;2023-05-07T06:32:19;10.20;;;7.78;;
59008;SDS011;44794;42.652;23.318;2023-05-07T06:34:45;10.43;;;7.78;;
59008;SDS011;44794;42.652;23.318;2023-05-07T06:37:10;12.15;;;7.47;;
59008;SDS011;44794;42.652;23.318;2023-05-07T06:39:35;9.85;;;7.03;;
59008;SDS011;44794;42.652;23.318;2023-05-07T06:42:01;10.68;;;7.18;;
59008;SDS011;44794;42.652;23.318;2023-05-07T06:44:27;9.45;;;6.65;;
59008;SDS011;44794;42.652;23.318;2023-05-07T06:46:53;9.80;;;6.25;;
59008;SDS011;44794;42.652;23.318;2023-05-07T06:49:18;11.95;;;7.53;;
59008;SDS011;44794;42.652;23.318;2023-05-07T06:51:43;9.02;;;6.95;;
59008;SDS011;44794;42.652;23.318;2023-05-07T06:54:09;8.85;;;7.05;;
59008;SDS011;44794;42.652;23.318;2023-05-07T06:56:34;8.52;;;7.32;;
59008;SDS011;44794;42.652;23.318;2023-05-07T06:59:00;10.32;;;7.45;;
59008;SDS011;44794;42.652;23.318;2023-05-07T07:01:26;9.88;;;7.13;;
59008;SDS011;44794;42.652;23.318;2023-05-07T07:03:52;8.90;;;7.20;;
59008;SDS011;44794;42.652;23.318;2023-05-07T07:06:17;9.38;;;7.32;;
59008;SDS011;44794;42.652;23.318;2023-05-07T07:08:43;8.95;;;7.43;;
59008;SDS011;44794;42.652;23.318;2023-05-07T07:11:10;8.55;;;7.10;;
59008;SDS011;44794;42.652;23.318;2023-05-07T07:13:36;8.55;;;6.90;;
59008;SDS011;44794;42.652;23.318;2023-05-07T07:16:01;8.82;;;7.93;;
59008;SDS011;44794;42.652;23.318;2023-05-07T07:18:27;10.43;;;7.30;;
59008;SDS011;44794;42.652;23.318;2023-05-07T07:20:53;10.13;;;8.45;;
59008;SDS011;44794;42.652;23.318;2023-05-07T07:23:18;11.43;;;8.30;;
59008;SDS011;44794;42.652;23.318;2023-05-07T07:25:47;9.98;;;8.43;;
59008;SDS011;44794;42.652;23.318;2023-05-07T07:28:12;13.35;;;8.75;;
59008;SDS011;44794;42.652;23.318;2023-05-07T07:30:38;14.90;;;8.63;;
59008;SDS011;44794;42.652;23.318;2023-05-07T07:33:04;11.63;;;8.43;;
59008;SDS011;44794;42.652;23.318;2023-05-07T07:35:30;13.35;;;8.88;;
59008;SDS011;44794;42.652;23.318;2023-05-07T07:37:56;11.20;;;8.63;;
59008;SDS011;44794;42.652;23.318;2023-05-07T07:40:21;10.75;;;8.80;;
59008;SDS011;44794;42.652;23.318;2023-05-07T07:42:47;11.40;;;9.07;;
59008;SDS011;44794;42.652;23.318;2023-05-07T07:45:12;11.60;;;8.48;;
59008;SDS011;44794;42.652;23.318;2023-05-07T07:47:41;10.93;;;8.52;;
59008;SDS011;44794;42.652;23.318;2023-05-07T07:50:07;14.57;;;8.88;;
59008;SDS011;44794;42.652;23.318;2023-05-07T07:52:33;12.50;;;9.50;;
59008;SDS011;44794;42.652;23.318;2023-05-07T07:55:00;14.63;;;10.18;;
59008;SDS011;44794;42.652;23.318;2023-05-07T07:57:26;14.93;;;9.90;;
59008;SDS011;44794;42.652;23.318;2023-05-07T07:59:52;11.40;;;9.15;;
59008;SDS011;44794;42.652;23.318;2023-05-07T08:02:17;14.48;;;9.88;;
59008;SDS011;44794;42.652;23.318;2023-05-07T08:04:43;13.52;;;9.35;;
59008;SDS011;44794;42.652;23.318;2023-05-07T08:07:12;12.18;;;9.40;;
59008;SDS011;44794;42.652;23.318;2023-05-07T08:09:38;12.80;;;9.82;;
59008;SDS011;44794;42.652;23.318;2023-05-07T08:12:04;13.27;;;8.95;;
59008;SDS011;44794;42.652;23.318;2023-05-07T08:14:33;14.95;;;9.68;;
59008;SDS011;44794;42.652;23.318;2023-05-07T08:16:59;13.23;;;9.43;;
59008;SDS011;44794;42.652;23.318;2023-05-07T08:19:24;13.23;;;9.70;;
59008;SDS011;44794;42.652;23.318;2023-05-07T08:21:50;11.45;;;9.43;;
59008;SDS011;44794;42.652;23.318;2023-05-07T08:24:15;13.82;;;9.43;;
59008;SDS011;44794;42.652;23.318;2023-05-07T08:26:41;12.18;;;9.05;;
59008;SDS011;44794;42.652;23.318;2023-05-07T08:29:07;12.57;;;8.88;;
59008;SDS011;44794;42.652;23.318;2023-05-07T08:31:33;14.32;;;9.10;;
59008;SDS011;44794;42.652;23.318;2023-05-07T08:33:59;13.48;;;9.07;;
59008;SDS011;44794;42.652;23.318;2023-05-07T08:36:25;12.38;;;9.20;;
59008;SDS011;44794;42.652;23.318;2023-05-07T08:38:51;11.73;;;8.85;;
59008;SDS011;44794;42.652;23.318;2023-05-07T08:41:17;11.57;;;8.13;;
59008;SDS011;44794;42.652;23.318;2023-05-07T08:43:42;10.70;;;7.78;;
59008;SDS011;44794;42.652;23.318;2023-05-07T08:46:15;9.65;;;6.72;;
59008;SDS011;44794;42.652;23.318;2023-05-07T08:48:43;13.30;;;7.55;;
59008;SDS011;44794;42.652;23.318;2023-05-07T08:51:17;7.22;;;5.75;;
59008;SDS011;44794;42.652;23.318;2023-05-07T08:53:44;10.38;;;7.10;;
59008;SDS011;44794;42.652;23.318;2023-05-07T08:56:10;9.77;;;7.43;;
59008;SDS011;44794;42.652;23.318;2023-05-07T08:58:36;10.60;;;7.78;;
59008;SDS011;44794;42.652;23.318;2023-05-07T09:01:03;9.48;;;7.88;;
59008;SDS011;44794;42.652;23.318;2023-05-07T09:03:34;13.75;;;7.90;;
59008;SDS011;44794;42.652;23.318;2023-05-07T09:06:00;11.80;;;7.68;;
59008;SDS011;44794;42.652;23.318;2023-05-07T09:08:26;12.55;;;7.80;;
59008;SDS011;44794;42.652;23.318;2023-05-07T09:10:52;10.48;;;8.10;;
59008;SDS011;44794;42.652;23.318;2023-05-07T09:13:18;9.63;;;7.70;;
59008;SDS011;44794;42.652;23.318;2023-05-07T09:15:44;11.27;;;7.88;;
59008;SDS011;44794;42.652;23.318;2023-05-07T09:18:09;12.73;;;7.43;;
59008;SDS011;44794;42.652;23.318;2023-05-07T09:20:38;9.85;;;7.43;;
59008;SDS011;44794;42.652;23.318;2023-05-07T09:23:04;10.55;;;7.63;;
59008;SDS011;44794;42.652;23.318;2023-05-07T09:25:30;9.10;;;7.53;;
59008;SDS011;44794;42.652;23.318;2023-05-07T09:27:57;9.77;;;6.80;;
59008;SDS011;44794;42.652;23.318;2023-05-07T09:30:23;11.63;;;7.00;;
59008;SDS011;44794;42.652;23.318;2023-05-07T09:32:53;15.20;;;7.03;;
59008;SDS011;44794;42.652;23.318;2023-05-07T09:35:18;9.88;;;6.70;;
59008;SDS011;44794;42.652;23.318;2023-05-07T09:37:46;9.48;;;6.78;;
59008;SDS011;44794;42.652;23.318;2023-05-07T09:40:30;8.95;;;6.68;;
59008;SDS011;44794;42.652;23.318;2023-05-07T09:42:56;11.85;;;7.20;;
59008;SDS011;44794;42.652;23.318;2023-05-07T09:45:32;7.65;;;6.80;;
59008;SDS011;44794;42.652;23.318;2023-05-07T09:47:58;8.52;;;6.45;;
59008;SDS011;44794;42.652;23.318;2023-05-07T09:50:28;8.65;;;5.40;;
59008;SDS011;44794;42.652;23.318;2023-05-07T09:52:57;7.20;;;5.90;;
59008;SDS011;44794;42.652;23.318;2023-05-07T09:55:23;6.72;;;5.40;;
59008;SDS011;44794;42.652;23.318;2023-05-07T09:57:52;6.15;;;4.82;;
59008;SDS011;44794;42.652;23.318;2023-05-07T10:00:19;7.38;;;5.82;;
59008;SDS011;44794;42.652;23.318;2023-05-07T10:02:50;5.82;;;4.93;;
59008;SDS011;44794;42.652;23.318;2023-05-07T10:05:18;5.80;;;4.78;;
59008;SDS011;44794;42.652;23.318;2023-05-07T10:07:46;8.88;;;5.05;;
59008;SDS011;44794;42.652;23.318;2023-05-07T10:10:12;8.60;;;4.80;;
59008;SDS011;44794;42.652;23.318;2023-05-07T10:12:39;6.38;;;5.78;;
59008;SDS011;44794;42.652;23.318;2023-05-07T10:15:10;7.10;;;5.85;;
59008;SDS011;44794;42.652;23.318;2023-05-07T10:17:40;10.27;;;6.25;;
59008;SDS011;44794;42.652;23.318;2023-05-07T10:20:06;9.57;;;6.18;;
59008;SDS011;44794;42.652;23.318;2023-05-07T10:22:44;8.80;;;5.45;;
59008;SDS011;44794;42.652;23.318;2023-05-07T10:25:25;6.78;;;5.07;;
59008;SDS011;44794;42.652;23.318;2023-05-07T10:27:55;7.28;;;5.35;;
59008;SDS011;44794;42.652;23.318;2023-05-07T10:30:34;11.05;;;5.25;;
59008;SDS011;44794;42.652;23.318;2023-05-07T10:33:26;6.75;;;5.32;;
59008;SDS011;44794;42.652;23.318;2023-05-07T10:35:55;7.30;;;5.68;;
59008;SDS011;44794;42.652;23.318;2023-05-07T10:38:24;9.32;;;5.50;;
59008;SDS011;44794;42.652;23.318;2023-05-07T10:40:51;7.85;;;5.90;;
59008;SDS011;44794;42.652;23.318;2023-05-07T10:43:17;7.50;;;5.95;;
59008;SDS011;44794;42.652;23.318;2023-05-07T10:45:43;7.35;;;5.65;;
59008;SDS011;44794;42.652;23.318;2023-05-07T10:48:29;8.35;;;5.78;;
59008;SDS011;44794;42.652;23.318;2023-05-07T10:56:35;9.45;;;5.68;;
59008;SDS011;44794;42.652;23.318;2023-05-07T11:01:55;6.95;;;5.60;;
59008;SDS011;44794;42.652;23.318;2023-05-07T11:04:31;8.68;;;6.03;;
59008;SDS011;44794;42.652;23.318;2023-05-07T11:17:34;10.63;;;6.25;;
59008;SDS011;44794;42.652;23.318;2023-05-07T11:20:16;10.32;;;6.20;;
59008;SDS011;44794;42.652;23.318;2023-05-07T11:22:42;7.63;;;5.90;;
59008;SDS011;44794;42.652;23.318;2023-05-07T11:25:08;6.22;;;5.55;;
59008;SDS011;44794;42.652;23.318;2023-05-07T11:27:34;7.57;;;5.97;;
59008;SDS011;44794;42.652;23.318;2023-05-07T11:30:00;8.32;;;6.28;;
59008;SDS011;44794;42.652;23.318;2023-05-07T11:32:26;9.48;;;6.47;;
59008;SDS011;44794;42.652;23.318;2023-05-07T11:34:53;8.82;;;6.40;;
59008;SDS011;44794;42.652;23.318;2023-05-07T11:37:20;9.05;;;6.72;;
59008;SDS011;44794;42.652;23.318;2023-05-07T11:39:47;7.68;;;6.18;;
59008;SDS011;44794;42.652;23.318;2023-05-07T11:42:28;8.57;;;6.18;;
59008;SDS011;44794;42.652;23.318;2023-05-07T11:44:58;7.97;;;5.90;;
59008;SDS011;44794;42.652;23.318;2023-05-07T11:47:24;6.93;;;6.13;;
59008;SDS011;44794;42.652;23.318;2023-05-07T11:49:53;9.90;;;6.38;;
59008;SDS011;44794;42.652;23.318;2023-05-07T11:52:20;7.50;;;5.33;;
59008;SDS011;44794;42.652;23.318;2023-05-07T11:54:50;7.28;;;5.45;;
59008;SDS011;44794;42.652;23.318;2023-05-07T11:57:16;10.70;;;6.20;;
59008;SDS011;44794;42.652;23.318;2023-05-07T11:59:41;5.90;;;5.28;;
59008;SDS011;44794;42.652;23.318;2023-05-07T12:02:09;9.98;;;6.55;;
59008;SDS011;44794;42.652;23.318;2023-05-07T12:04:35;7.13;;;5.45;;
59008;SDS011;44794;42.652;23.318;2023-05-07T12:07:00;6.28;;;5.20;;
59008;SDS011;44794;42.652;23.318;2023-05-07T12:09:26;8.50;;;5.63;;
59008;SDS011;44794;42.652;23.318;2023-05-07T12:11:51;10.43;;;5.45;;
59008;SDS011;44794;42.652;23.318;2023-05-07T12:14:21;6.60;;;5.20;;
59008;SDS011;44794;42.652;23.318;2023-05-07T12:16:46;7.85;;;5.40;;
59008;SDS011;44794;42.652;23.318;2023-05-07T12:19:12;6.05;;;5.25;;
59008;SDS011;44794;42.652;23.318;2023-05-07T12:21:39;8.38;;;5.32;;
59008;SDS011;44794;42.652;23.318;2023-05-07T12:24:05;7.80;;;5.50;;
59008;SDS011;44794;42.652;23.318;2023-05-07T12:26:31;8.88;;;5.47;;
59008;SDS011;44794;42.652;23.318;2023-05-07T12:28:59;8.15;;;5.28;;
59008;SDS011;44794;42.652;23.318;2023-05-07T12:31:28;6.72;;;5.53;;
59008;SDS011;44794;42.652;23.318;2023-05-07T12:33:53;7.53;;;5.07;;
59008;SDS011;44794;42.652;23.318;2023-05-07T12:36:19;7.97;;;5.22;;
59008;SDS011;44794;42.652;23.318;2023-05-07T12:38:46;8.30;;;5.20;;
59008;SDS011;44794;42.652;23.318;2023-05-07T12:41:14;7.50;;;5.35;;
59008;SDS011;44794;42.652;23.318;2023-05-07T12:43:43;5.45;;;4.05;;
59008;SDS011;44794;42.652;23.318;2023-05-07T12:46:09;6.57;;;4.40;;
59008;SDS011;44794;42.652;23.318;2023-05-07T12:48:38;5.25;;;4.35;;
59008;SDS011;44794;42.652;23.318;2023-05-07T12:51:08;4.43;;;3.95;;
59008;SDS011;44794;42.652;23.318;2023-05-07T12:53:39;5.80;;;4.35;;
59008;SDS011;44794;42.652;23.318;2023-05-07T12:56:05;9.40;;;4.25;;
59008;SDS011;44794;42.652;23.318;2023-05-07T12:58:32;4.97;;;3.97;;
59008;SDS011;44794;42.652;23.318;2023-05-07T13:01:00;6.97;;;4.55;;
59008;SDS011;44794;42.652;23.318;2023-05-07T13:03:30;6.70;;;4.00;;
59008;SDS011;44794;42.652;23.318;2023-05-07T13:06:07;8.43;;;4.68;;
59008;SDS011;44794;42.652;23.318;2023-05-07T13:08:38;6.63;;;4.38;;
59008;SDS011;44794;42.652;23.318;2023-05-07T13:11:08;5.32;;;4.50;;
59008;SDS011;44794;42.652;23.318;2023-05-07T13:13:35;6.00;;;4.75;;
59008;SDS011;44794;42.652;23.318;2023-05-07T13:16:02;6.93;;;4.90;;
59008;SDS011;44794;42.652;23.318;2023-05-07T13:18:29;7.93;;;4.65;;
59008;SDS011;44794;42.652;23.318;2023-05-07T13:20:55;10.80;;;4.50;;
59008;SDS011;44794;42.652;23.318;2023-05-07T13:23:21;7.75;;;4.72;;
59008;SDS011;44794;42.652;23.318;2023-05-07T13:25:47;6.20;;;4.57;;
59008;SDS011;44794;42.652;23.318;2023-05-07T13:28:13;5.95;;;4.93;;
59008;SDS011;44794;42.652;23.318;2023-05-07T13:30:39;7.32;;;5.03;;
59008;SDS011;44794;42.652;23.318;2023-05-07T13:33:06;6.65;;;4.70;;
59008;SDS011;44794;42.652;23.318;2023-05-07T13:35:34;7.22;;;4.47;;
59008;SDS011;44794;42.652;23.318;2023-05-07T13:38:00;5.10;;;4.22;;
59008;SDS011;44794;42.652;23.318;2023-05-07T13:40:25;6.65;;;4.20;;
59008;SDS011;44794;42.652;23.318;2023-05-07T13:42:51;5.90;;;4.40;;
59008;SDS011;44794;42.652;23.318;2023-05-07T13:45:17;7.63;;;5.05;;
59008;SDS011;44794;42.652;23.318;2023-05-07T13:47:43;4.72;;;4.10;;
59008;SDS011;44794;42.652;23.318;2023-05-07T13:50:09;5.78;;;4.10;;
59008;SDS011;44794;42.652;23.318;2023-05-07T13:52:40;5.70;;;4.18;;
59008;SDS011;44794;42.652;23.318;2023-05-07T13:55:08;5.50;;;4.05;;
59008;SDS011;44794;42.652;23.318;2023-05-07T13:57:35;4.68;;;3.80;;
59008;SDS011;44794;42.652;23.318;2023-05-07T14:00:02;4.15;;;3.75;;
59008;SDS011;44794;42.652;23.318;2023-05-07T14:02:30;5.03;;;3.72;;
59008;SDS011;44794;42.652;23.318;2023-05-07T14:04:56;5.47;;;4.25;;
59008;SDS011;44794;42.652;23.318;2023-05-07T14:07:21;5.90;;;4.35;;
59008;SDS011;44794;42.652;23.318;2023-05-07T14:09:47;7.78;;;4.00;;
59008;SDS011;44794;42.652;23.318;2023-05-07T14:12:12;7.20;;;4.10;;
59008;SDS011;44794;42.652;23.318;2023-05-07T14:14:38;4.43;;;4.03;;
59008;SDS011;44794;42.652;23.318;2023-05-07T14:17:03;5.40;;;4.32;;
59008;SDS011;44794;42.652;23.318;2023-05-07T14:19:28;6.15;;;4.20;;
59008;SDS011;44794;42.652;23.318;2023-05-07T14:21:54;5.18;;;4.03;;
59008;SDS011;44794;42.652;23.318;2023-05-07T14:24:19;4.10;;;3.70;;
59008;SDS011;44794;42.652;23.318;2023-05-07T14:26:45;6.10;;;3.60;;
59008;SDS011;44794;42.652;23.318;2023-05-07T14:29:11;6.85;;;3.95;;
59008;SDS011;44794;42.652;23.318;2023-05-07T14:31:36;4.30;;;3.88;;
59008;SDS011;44794;42.652;23.318;2023-05-07T14:34:01;4.80;;;4.00;;
59008;SDS011;44794;42.652;23.318;2023-05-07T14:36:27;8.73;;;4.13;;